Time;durP1;ratioP1;P1;durP2;ratioP2;P2;SDS_P1;SDS_P2;PMS_P1;PMS_P2;Temp;Humidity;BMP_temperature;BMP_pressure;BME280_temperature;BME280_humidity;BME280_pressure;Samples;Min_cycle;Max_cycle;Signal;HPM_P1;HPM_P2
2021/08/18 00:01:58;;;;;;;1.23;1.13;;;20.40;64.50;;;;;;5114028;28;20177;-69
2021/08/18 00:04:24;;;;;;;0.95;0.90;;;20.30;64.50;;;;;;5113694;28;20614;-69
2021/08/18 00:06:49;;;;;;;1.17;0.98;;;20.30;64.50;;;;;;5113158;28;20617;-68
2021/08/18 00:09:15;;;;;;;0.80;0.80;;;20.30;64.50;;;;;;5113831;28;20271;-69
2021/08/18 00:11:40;;;;;;;1.58;0.90;;;20.30;64.60;;;;;;5113698;28;20212;-68
2021/08/18 00:14:06;;;;;;;1.73;1.00;;;20.40;64.60;;;;;;5112367;28;20354;-69
2021/08/18 00:16:31;;;;;;;1.15;1.05;;;20.30;64.50;;;;;;5113558;28;20367;-68
2021/08/18 00:18:57;;;;;;;1.10;0.85;;;20.30;64.60;;;;;;5113577;28;20181;-68
2021/08/18 00:21:23;;;;;;;1.58;1.15;;;20.30;64.60;;;;;;5112340;28;20615;-68
2021/08/18 00:23:49;;;;;;;1.23;1.15;;;20.30;64.60;;;;;;5113229;28;20254;-67
2021/08/18 00:26:15;;;;;;;1.55;1.30;;;20.30;64.50;;;;;;5113576;28;20532;-68
2021/08/18 00:28:40;;;;;;;1.15;1.00;;;20.30;64.60;;;;;;5112553;28;20646;-68
2021/08/18 00:31:06;;;;;;;1.08;0.98;;;20.30;64.60;;;;;;5113546;28;20169;-68
2021/08/18 00:33:31;;;;;;;1.10;1.00;;;20.30;64.60;;;;;;5112997;28;20172;-69
2021/08/18 00:35:57;;;;;;;1.00;0.82;;;20.30;64.60;;;;;;5112552;28;20209;-68
2021/08/18 00:38:22;;;;;;;1.75;0.95;;;20.30;64.70;;;;;;5112847;28;20177;-69
2021/08/18 00:40:48;;;;;;;1.92;1.30;;;20.30;64.60;;;;;;5113347;28;20180;-68
2021/08/18 00:43:14;;;;;;;3.55;1.15;;;20.30;64.70;;;;;;5094371;28;20526;-68
2021/08/18 00:45:40;;;;;;;1.00;1.00;;;20.30;64.70;;;;;;5112738;28;20549;-68
2021/08/18 00:48:05;;;;;;;1.05;1.00;;;20.30;64.70;;;;;;5113219;28;20165;-67
2021/08/18 00:50:31;;;;;;;0.88;0.88;;;20.30;64.60;;;;;;5112036;28;20188;-68
2021/08/18 00:52:56;;;;;;;1.10;0.90;;;20.30;64.70;;;;;;5112873;28;20173;-68
2021/08/18 00:55:23;;;;;;;0.80;0.80;;;20.20;64.60;;;;;;5111903;28;20173;-69
2021/08/18 00:57:49;;;;;;;1.83;1.13;;;20.30;64.70;;;;;;5113067;28;20234;-68
2021/08/18 01:00:16;;;;;;;2.15;1.25;;;20.30;64.80;;;;;;5094678;28;20643;-68
2021/08/18 01:02:46;;;;;;;0.80;0.80;;;20.30;64.70;;;;;;5111714;28;20923;-67
2021/08/18 01:05:31;;;;;;;0.98;0.70;;;20.30;64.70;;;;;;5112837;28;20572;-68
2021/08/18 01:07:57;;;;;;;0.93;0.82;;;20.30;64.80;;;;;;5112978;28;20183;-68
2021/08/18 01:10:28;;;;;;;1.50;0.90;;;20.30;64.70;;;;;;5111823;28;20173;-68
2021/08/18 01:12:54;;;;;;;1.02;0.88;;;20.30;64.70;;;;;;5112700;28;20569;-67
2021/08/18 01:15:21;;;;;;;0.77;0.77;;;20.30;64.80;;;;;;5112489;28;20167;-68
2021/08/18 01:17:48;;;;;;;1.25;1.10;;;20.30;64.80;;;;;;5111942;28;20591;-67
2021/08/18 01:20:21;;;;;;;0.88;0.80;;;20.30;64.80;;;;;;5112584;28;20208;-67
2021/08/18 01:22:47;;;;;;;0.98;0.90;;;20.20;64.80;;;;;;5112641;28;20177;-66
2021/08/18 01:25:12;;;;;;;1.73;0.93;;;20.20;64.70;;;;;;5111734;28;20692;-67
2021/08/18 01:27:44;;;;;;;1.20;1.00;;;20.30;64.90;;;;;;5112483;28;20237;-67
2021/08/18 01:30:10;;;;;;;1.35;1.13;;;20.20;64.80;;;;;;5095135;28;20639;-68
2021/08/18 01:32:45;;;;;;;1.23;1.13;;;20.20;64.70;;;;;;5093115;28;20653;-67
2021/08/18 01:35:24;;;;;;;0.85;0.85;;;20.20;64.80;;;;;;5112406;28;20665;-68
2021/08/18 01:37:50;;;;;;;1.33;1.13;;;20.20;64.80;;;;;;5111757;28;20988;-67
2021/08/18 01:40:16;;;;;;;1.00;1.00;;;20.20;64.80;;;;;;5112479;28;20177;-67
2021/08/18 01:42:41;;;;;;;1.20;1.10;;;20.20;64.80;;;;;;5111977;28;20181;-68
2021/08/18 01:45:07;;;;;;;1.00;1.00;;;20.20;64.80;;;;;;5111627;28;20176;-67
2021/08/18 01:47:33;;;;;;;1.58;1.10;;;20.20;64.80;;;;;;5112125;28;20173;-67
2021/08/18 01:49:58;;;;;;;0.70;0.70;;;20.20;64.80;;;;;;5112362;28;20197;-67
2021/08/18 01:52:24;;;;;;;1.50;1.13;;;20.20;64.90;;;;;;5111473;28;20222;-69
2021/08/18 01:54:53;;;;;;;1.23;1.00;;;20.20;64.80;;;;;;5112211;28;20173;-68
2021/08/18 01:57:18;;;;;;;1.02;0.93;;;20.20;64.90;;;;;;5109461;28;20232;-68
2021/08/18 01:59:51;;;;;;;0.80;0.80;;;20.20;64.90;;;;;;5111344;28;20522;-68
2021/08/18 02:02:19;;;;;;;1.17;1.17;;;20.20;64.90;;;;;;5112305;28;20546;-68
2021/08/18 02:04:51;;;;;;;0.82;0.80;;;20.20;64.90;;;;;;5112338;28;20201;-67
2021/08/18 02:07:22;;;;;;;1.00;0.98;;;20.20;64.90;;;;;;5111830;28;20578;-67
2021/08/18 02:09:48;;;;;;;0.93;0.93;;;20.20;64.90;;;;;;5112201;28;20685;-67
2021/08/18 02:12:14;;;;;;;1.05;1.00;;;20.20;64.90;;;;;;5112147;28;20551;-67
2021/08/18 02:14:40;;;;;;;1.08;1.00;;;20.20;64.90;;;;;;5111039;28;20533;-66
2021/08/18 02:17:06;;;;;;;0.90;0.90;;;20.20;64.90;;;;;;5111904;28;20738;-67
2021/08/18 02:19:31;;;;;;;1.35;0.80;;;20.20;64.90;;;;;;5111917;28;20244;-66
2021/08/18 02:21:57;;;;;;;0.98;0.98;;;20.20;64.90;;;;;;5111309;28;20612;-66
2021/08/18 02:24:22;;;;;;;1.02;0.90;;;20.20;65.00;;;;;;5111465;28;20263;-67
2021/08/18 02:26:48;;;;;;;1.05;1.00;;;20.20;65.00;;;;;;5111369;28;20169;-66
2021/08/18 02:29:13;;;;;;;0.88;0.88;;;20.10;64.90;;;;;;5111865;28;20173;-66
2021/08/18 02:31:39;;;;;;;0.98;0.95;;;20.10;64.90;;;;;;5111342;28;20602;-67
2021/08/18 02:34:08;;;;;;;1.00;0.90;;;20.20;65.00;;;;;;5111246;28;20268;-67
2021/08/18 02:36:34;;;;;;;1.63;1.20;;;20.10;65.00;;;;;;5111367;28;20247;-66
2021/08/18 02:38:59;;;;;;;0.82;0.82;;;20.10;65.00;;;;;;5115115;28;20177;-66
2021/08/18 02:41:24;;;;;;;1.08;1.08;;;20.20;65.00;;;;;;5114378;28;20173;-67
2021/08/18 02:43:50;;;;;;;1.25;0.85;;;20.20;65.00;;;;;;5115657;28;20215;-67
2021/08/18 02:46:15;;;;;;;1.58;1.08;;;20.20;65.10;;;;;;5115353;28;20246;-68
2021/08/18 02:48:41;;;;;;;1.15;0.90;;;20.10;65.80;;;;;;5114260;28;20208;-68
2021/08/18 02:51:06;;;;;;;1.73;1.00;;;20.20;65.10;;;;;;5115238;28;20175;-68
2021/08/18 02:53:32;;;;;;;1.10;0.80;;;20.10;65.00;;;;;;5114890;28;20170;-68
2021/08/18 02:55:57;;;;;;;2.25;1.90;;;20.20;65.10;;;;;;5114306;28;20197;-68
2021/08/18 02:58:23;;;;;;;0.95;0.95;;;20.20;65.10;;;;;;5114637;28;20612;-69
2021/08/18 03:00:49;;;;;;;0.80;0.80;;;20.10;65.00;;;;;;5114973;28;20494;-68
2021/08/18 03:03:14;;;;;;;1.13;0.93;;;20.20;65.20;;;;;;5114373;28;20199;-68
2021/08/18 03:05:40;;;;;;;1.65;0.93;;;20.10;65.00;;;;;;5114759;28;20532;-68
2021/08/18 03:08:05;;;;;;;1.05;1.00;;;20.10;65.00;;;;;;5114782;28;20201;-68
2021/08/18 03:10:31;;;;;;;1.13;1.02;;;20.10;65.00;;;;;;5113665;28;20655;-68
2021/08/18 03:12:56;;;;;;;1.15;1.02;;;20.10;65.10;;;;;;5114977;28;20177;-67
2021/08/18 03:15:21;;;;;;;0.93;0.90;;;20.10;65.10;;;;;;5114491;28;20165;-67
2021/08/18 03:17:47;;;;;;;0.80;0.80;;;20.10;65.10;;;;;;5113903;28;20257;-68
2021/08/18 03:20:13;;;;;;;0.90;0.90;;;20.10;65.10;;;;;;5114707;28;20709;-68
2021/08/18 03:22:38;;;;;;;1.00;0.90;;;20.10;65.10;;;;;;5114199;28;20634;-67
2021/08/18 03:25:04;;;;;;;1.88;1.08;;;20.10;65.10;;;;;;5113754;28;20177;-68
2021/08/18 03:27:30;;;;;;;0.88;0.80;;;20.10;65.10;;;;;;5114367;28;20599;-68
2021/08/18 03:29:55;;;;;;;1.00;1.00;;;20.10;65.10;;;;;;5114664;28;20647;-69
2021/08/18 03:32:21;;;;;;;1.05;1.02;;;20.10;65.10;;;;;;5113361;28;20181;-68
2021/08/18 03:34:46;;;;;;;0.98;0.90;;;20.10;65.20;;;;;;5114579;28;20646;-68
2021/08/18 03:37:12;;;;;;;1.05;1.05;;;20.10;65.10;;;;;;5113490;28;20209;-68
2021/08/18 03:39:38;;;;;;;2.28;1.00;;;20.10;65.10;;;;;;5113770;28;20174;-67
2021/08/18 03:42:03;;;;;;;0.80;0.80;;;20.10;65.10;;;;;;5114434;28;20577;-68
2021/08/18 03:44:29;;;;;;;1.13;0.90;;;20.10;65.20;;;;;;5113239;28;20169;-68
2021/08/18 03:46:54;;;;;;;2.28;1.20;;;20.10;65.10;;;;;;5114206;28;20196;-68
2021/08/18 03:49:20;;;;;;;1.10;1.00;;;20.10;65.20;;;;;;5113798;28;20169;-68
2021/08/18 03:51:46;;;;;;;1.30;0.88;;;20.10;65.20;;;;;;5113223;28;20192;-67
2021/08/18 03:54:11;;;;;;;2.13;1.10;;;20.00;65.10;;;;;;5114028;28;20166;-68
2021/08/18 03:56:37;;;;;;;1.20;1.10;;;20.10;65.20;;;;;;5113392;28;20524;-67
2021/08/18 03:59:02;;;;;;;1.23;1.02;;;20.10;65.30;;;;;;5113295;28;20189;-68
2021/08/18 04:01:28;;;;;;;1.23;0.90;;;20.10;65.20;;;;;;5113570;28;20174;-69
2021/08/18 04:03:53;;;;;;;0.77;0.77;;;20.10;65.20;;;;;;5113970;28;20648;-67
2021/08/18 04:06:19;;;;;;;1.20;1.10;;;20.10;65.20;;;;;;5113072;28;20718;-68
2021/08/18 04:08:44;;;;;;;1.42;1.20;;;20.10;65.30;;;;;;5113721;28;20170;-66
2021/08/18 04:11:11;;;;;;;1.00;1.00;;;20.10;65.30;;;;;;5113112;28;20189;-68
2021/08/18 04:13:37;;;;;;;1.75;1.10;;;20.10;65.30;;;;;;5112605;28;20169;-67
2021/08/18 04:16:02;;;;;;;1.45;1.13;;;20.00;65.30;;;;;;5113554;28;20211;-68
2021/08/18 04:18:28;;;;;;;1.10;1.00;;;20.00;65.20;;;;;;5113154;28;20195;-67
2021/08/18 04:20:53;;;;;;;1.02;1.00;;;20.00;65.20;;;;;;5112656;28;20173;-66
2021/08/18 04:23:19;;;;;;;1.20;1.02;;;20.00;65.20;;;;;;5113099;28;20307;-68
2021/08/18 04:25:44;;;;;;;1.13;0.88;;;20.00;65.20;;;;;;5113104;28;20176;-67
2021/08/18 04:28:10;;;;;;;1.10;1.00;;;20.00;65.20;;;;;;5112766;28;20165;-68
2021/08/18 04:30:35;;;;;;;1.00;1.00;;;20.00;65.30;;;;;;5113072;28;20165;-67
2021/08/18 04:33:01;;;;;;;0.90;0.90;;;20.00;65.30;;;;;;5113282;28;20188;-69
2021/08/18 04:35:26;;;;;;;2.30;1.25;;;20.00;65.20;;;;;;5112004;28;20177;-69
2021/08/18 04:37:52;;;;;;;1.15;1.02;;;20.00;65.20;;;;;;5113138;28;20222;-68
2021/08/18 04:40:20;;;;;;;1.33;1.00;;;20.00;65.30;;;;;;5112971;28;20504;-68
2021/08/18 04:42:46;;;;;;;1.55;1.10;;;20.00;65.40;;;;;;5112413;28;20197;-67
2021/08/18 04:45:12;;;;;;;1.00;0.90;;;20.00;65.30;;;;;;5113017;28;20611;-67
2021/08/18 04:47:38;;;;;;;1.10;1.00;;;20.00;65.30;;;;;;5111785;28;20211;-67
2021/08/18 04:50:04;;;;;;;1.30;1.10;;;20.00;65.30;;;;;;5113005;28;20213;-67
2021/08/18 04:52:30;;;;;;;1.67;1.00;;;20.00;65.40;;;;;;5112361;28;20200;-67
2021/08/18 04:54:56;;;;;;;1.20;1.00;;;20.00;65.30;;;;;;5111987;28;20196;-67
2021/08/18 04:57:21;;;;;;;1.27;1.10;;;20.00;65.30;;;;;;5112404;28;20695;-68
2021/08/18 04:59:47;;;;;;;1.20;1.08;;;20.00;65.40;;;;;;5112478;28;20173;-68
2021/08/18 05:02:12;;;;;;;1.20;1.10;;;20.00;65.30;;;;;;5111632;28;20173;-67
2021/08/18 05:04:38;;;;;;;0.85;0.80;;;20.00;65.40;;;;;;5112197;28;20169;-67
2021/08/18 05:07:03;;;;;;;0.90;0.90;;;20.00;65.40;;;;;;5112347;28;20177;-67
2021/08/18 05:09:29;;;;;;;1.02;1.00;;;20.00;65.30;;;;;;5111218;28;20193;-67
2021/08/18 05:11:55;;;;;;;2.05;1.10;;;20.00;65.30;;;;;;5112307;28;20623;-67
2021/08/18 05:14:22;;;;;;;1.60;1.13;;;20.00;65.30;;;;;;5112233;28;20181;-68
2021/08/18 05:16:47;;;;;;;1.30;0.82;;;20.00;65.30;;;;;;5111599;28;20212;-67
2021/08/18 05:19:13;;;;;;;0.70;0.70;;;20.00;65.30;;;;;;5112351;28;20176;-67
2021/08/18 05:21:38;;;;;;;1.50;1.00;;;20.00;65.30;;;;;;5111913;28;20437;-65
2021/08/18 05:24:04;;;;;;;2.03;1.20;;;20.00;65.40;;;;;;5111397;28;20262;-66
2021/08/18 05:26:30;;;;;;;1.13;1.13;;;20.00;65.30;;;;;;5111984;28;20209;-66
2021/08/18 05:28:55;;;;;;;0.90;0.90;;;20.00;65.40;;;;;;5112310;28;20173;-66
2021/08/18 05:31:21;;;;;;;1.42;1.00;;;20.00;65.30;;;;;;5111260;28;20185;-66
2021/08/18 05:33:46;;;;;;;1.10;1.00;;;20.10;65.30;;;;;;5112084;28;20165;-65
2021/08/18 05:36:12;;;;;;;1.75;1.10;;;20.00;65.30;;;;;;5112076;28;20205;-67
2021/08/18 05:38:37;;;;;;;1.05;1.05;;;20.00;65.20;;;;;;5111251;28;20502;-66
2021/08/18 05:41:03;;;;;;;1.25;1.00;;;20.00;65.20;;;;;;5112341;28;20219;-67
2021/08/18 05:43:29;;;;;;;1.00;0.90;;;20.00;65.30;;;;;;5111725;28;20261;-68
2021/08/18 05:45:54;;;;;;;1.27;0.95;;;20.00;65.40;;;;;;5111398;28;20184;-68
2021/08/18 05:48:20;;;;;;;1.17;1.15;;;20.00;65.30;;;;;;5112006;28;20169;-67
2021/08/18 05:50:45;;;;;;;0.98;0.88;;;20.00;65.40;;;;;;5111452;28;20169;-67
2021/08/18 05:53:15;;;;;;;1.33;1.23;;;20.00;65.40;;;;;;5112001;28;20177;-67
2021/08/18 05:55:50;;;;;;;1.10;1.08;;;20.00;65.30;;;;;;5111964;28;20185;-67
2021/08/18 05:58:16;;;;;;;1.02;1.02;;;20.10;65.40;;;;;;5111481;28;20547;-68
2021/08/18 06:00:41;;;;;;;0.80;0.80;;;20.00;65.40;;;;;;5111723;28;20635;-67
2021/08/18 06:03:07;;;;;;;0.80;0.73;;;20.00;65.40;;;;;;5111785;28;20200;-67
2021/08/18 06:05:33;;;;;;;1.33;0.90;;;20.10;65.40;;;;;;5110854;28;20276;-67
2021/08/18 06:08:01;;;;;;;0.90;0.90;;;20.00;65.30;;;;;;5111909;28;20173;-67
2021/08/18 06:10:27;;;;;;;1.38;1.10;;;20.00;65.40;;;;;;5111791;28;20169;-68
2021/08/18 06:12:52;;;;;;;1.80;1.30;;;20.00;65.40;;;;;;5114286;28;20225;-66
2021/08/18 06:15:18;;;;;;;1.50;1.00;;;20.10;65.40;;;;;;5115744;28;20173;-67
2021/08/18 06:17:46;;;;;;;0.80;0.80;;;20.10;65.40;;;;;;5115469;28;20300;-67
2021/08/18 06:20:12;;;;;;;1.38;1.00;;;20.10;65.40;;;;;;5114971;28;20254;-68
2021/08/18 06:22:38;;;;;;;1.45;1.35;;;20.10;65.40;;;;;;5115559;28;20181;-66
2021/08/18 06:25:07;;;;;;;1.08;0.95;;;20.10;65.40;;;;;;5115044;28;20189;-67
2021/08/18 06:27:32;;;;;;;1.10;1.00;;;20.10;65.40;;;;;;5114584;28;20241;-68
2021/08/18 06:29:58;;;;;;;1.08;1.02;;;20.10;65.40;;;;;;5115535;28;20244;-67
2021/08/18 06:32:23;;;;;;;1.20;1.10;;;20.10;65.40;;;;;;5115206;28;20183;-68
2021/08/18 06:34:53;;;;;;;1.08;1.02;;;20.10;66.30;;;;;;5114543;28;20510;-65
2021/08/18 06:37:19;;;;;;;1.35;1.08;;;20.10;65.50;;;;;;5115194;28;20628;-62
2021/08/18 06:39:45;;;;;;;1.60;1.25;;;20.10;65.40;;;;;;5115427;28;20180;-62
2021/08/18 06:42:10;;;;;;;1.67;1.00;;;20.10;65.50;;;;;;5114914;28;20169;-62
2021/08/18 06:44:36;;;;;;;2.10;0.95;;;20.10;65.40;;;;;;5115142;28;20710;-62
2021/08/18 06:47:01;;;;;;;2.13;1.25;;;20.10;65.40;;;;;;5114830;28;20260;-61
2021/08/18 06:49:27;;;;;;;2.58;1.35;;;20.20;65.40;;;;;;5114946;28;20177;-61
2021/08/18 06:51:52;;;;;;;2.35;1.27;;;20.20;65.50;;;;;;5115182;28;20619;-62
2021/08/18 06:54:18;;;;;;;3.05;1.33;;;20.20;65.50;;;;;;5114760;28;20184;-63
2021/08/18 06:56:43;;;;;;;1.65;1.55;;;20.20;65.60;;;;;;5114892;28;20303;-62
2021/08/18 06:59:09;;;;;;;2.75;1.48;;;20.20;65.70;;;;;;5115134;28;20268;-63
2021/08/18 07:01:34;;;;;;;4.75;1.75;;;20.20;65.70;;;;;;5113859;28;20248;-62
2021/08/18 07:04:02;;;;;;;2.53;1.40;;;20.30;65.70;;;;;;5114572;28;20189;-62
2021/08/18 07:06:28;;;;;;;5.70;1.45;;;20.30;65.70;;;;;;5114846;28;20173;-62
2021/08/18 07:08:53;;;;;;;1.95;1.42;;;20.30;65.60;;;;;;5114280;28;20233;-61
2021/08/18 07:11:19;;;;;;;3.30;1.30;;;20.30;65.60;;;;;;5114096;28;20189;-61
2021/08/18 07:13:44;;;;;;;2.78;1.40;;;20.20;65.70;;;;;;5114578;28;20193;-61
2021/08/18 07:16:10;;;;;;;4.43;1.65;;;20.20;65.70;;;;;;5113849;28;20208;-62
2021/08/18 07:18:40;;;;;;;3.40;1.65;;;20.20;65.80;;;;;;5114302;28;20646;-61
2021/08/18 07:21:06;;;;;;;1.40;1.30;;;20.20;65.80;;;;;;5114980;28;20181;-62
2021/08/18 07:23:31;;;;;;;2.63;1.27;;;20.20;65.80;;;;;;5113046;28;20662;-61
2021/08/18 07:25:57;;;;;;;2.42;1.38;;;20.20;65.70;;;;;;5114823;28;20627;-61
2021/08/18 07:28:22;;;;;;;2.08;1.48;;;20.20;65.80;;;;;;5114366;28;20290;-67
2021/08/18 07:30:48;;;;;;;1.88;1.35;;;20.20;65.80;;;;;;5113902;28;20173;-66
2021/08/18 07:33:13;;;;;;;1.98;1.20;;;20.20;65.90;;;;;;5114470;28;20173;-67
2021/08/18 07:35:39;;;;;;;4.07;1.80;;;20.30;65.70;;;;;;5114192;28;21211;-67
2021/08/18 07:38:04;;;;;;;4.47;1.38;;;20.30;65.70;;;;;;5113809;28;20173;-66
2021/08/18 07:40:30;;;;;;;3.95;1.50;;;20.30;65.60;;;;;;5114094;28;20650;-66
2021/08/18 07:42:56;;;;;;;2.70;1.50;;;20.30;65.60;;;;;;5114124;28;20650;-65
2021/08/18 07:45:22;;;;;;;4.68;1.42;;;20.30;65.60;;;;;;5113267;28;20176;-66
2021/08/18 07:47:48;;;;;;;8.45;1.63;;;20.30;65.50;;;;;;5114304;28;20185;-65
2021/08/18 07:50:13;;;;;;;3.22;1.63;;;20.30;65.60;;;;;;5114345;28;20241;-65
2021/08/18 07:52:39;;;;;;;2.60;1.40;;;20.40;65.60;;;;;;5113252;28;20664;-64
2021/08/18 07:55:05;;;;;;;3.80;1.52;;;20.30;65.50;;;;;;5113910;28;20173;-66
2021/08/18 07:57:34;;;;;;;1.60;1.45;;;20.40;65.60;;;;;;5112808;28;20739;-65
2021/08/18 07:59:59;;;;;;;2.63;1.80;;;20.40;65.50;;;;;;5113889;28;20704;-66
2021/08/18 08:02:25;;;;;;;2.97;1.30;;;20.40;65.50;;;;;;5113525;28;20216;-66
2021/08/18 08:04:50;;;;;;;2.55;1.65;;;20.40;65.60;;;;;;5113521;28;20226;-65
2021/08/18 08:07:16;;;;;;;2.88;1.50;;;20.40;65.50;;;;;;5113865;28;20185;-66
2021/08/18 08:09:41;;;;;;;3.28;1.60;;;20.40;65.60;;;;;;5113608;28;20530;-64
2021/08/18 08:12:07;;;;;;;2.75;1.27;;;20.40;65.50;;;;;;5113237;28;20635;-65
2021/08/18 08:14:33;;;;;;;2.38;1.38;;;20.40;65.50;;;;;;5113322;28;20169;-61
2021/08/18 08:16:59;;;;;;;3.40;1.63;;;20.40;65.60;;;;;;5113372;28;20205;-61
2021/08/18 08:19:24;;;;;;;2.97;1.45;;;20.40;65.60;;;;;;5112466;28;20165;-64
2021/08/18 08:21:52;;;;;;;3.95;1.58;;;20.40;65.90;;;;;;5113394;28;20704;-63
2021/08/18 08:24:17;;;;;;;4.88;1.75;;;20.40;66.10;;;;;;5113499;28;20220;-63
2021/08/18 08:26:43;;;;;;;1.33;1.23;;;20.40;65.90;;;;;;5112413;28;20169;-64
2021/08/18 08:29:08;;;;;;;4.60;1.60;;;20.40;66.00;;;;;;5113110;28;20569;-65
2021/08/18 08:31:34;;;;;;;2.30;1.55;;;20.40;65.90;;;;;;5112721;28;20212;-66
2021/08/18 08:34:00;;;;;;;1.55;1.10;;;20.40;66.00;;;;;;5112632;28;20576;-64
2021/08/18 08:36:25;;;;;;;2.58;1.83;;;20.40;65.90;;;;;;5111763;28;20236;-66
2021/08/18 08:38:51;;;;;;;2.45;1.00;;;20.50;66.00;;;;;;5118692;27;20183;-64
2021/08/18 08:41:17;;;;;;;4.65;2.05;;;20.50;66.00;;;;;;5121876;27;20223;-65
2021/08/18 08:43:42;;;;;;;3.22;1.55;;;20.50;66.00;;;;;;5123533;27;20763;-64
2021/08/18 08:46:08;;;;;;;3.88;1.40;;;20.50;66.00;;;;;;5120794;27;20355;-66
2021/08/18 08:48:34;;;;;;;2.42;1.20;;;20.50;65.90;;;;;;5111940;28;20312;-64
2021/08/18 08:50:59;;;;;;;5.18;1.63;;;20.60;65.90;;;;;;5112885;28;20169;-62
2021/08/18 08:53:25;;;;;;;3.30;1.73;;;20.60;65.80;;;;;;5112740;28;20173;-62
2021/08/18 08:55:52;;;;;;;2.35;1.30;;;20.60;65.70;;;;;;5112162;28;20224;-63
2021/08/18 08:58:18;;;;;;;1.63;1.40;;;20.60;65.70;;;;;;5112773;28;20173;-63
2021/08/18 09:00:44;;;;;;;2.88;1.23;;;20.60;65.70;;;;;;5112026;28;20173;-62
2021/08/18 09:03:09;;;;;;;4.47;1.60;;;20.60;65.50;;;;;;5112865;28;20591;-63
2021/08/18 09:05:35;;;;;;;1.95;1.25;;;20.70;65.60;;;;;;5112649;28;20184;-62
2021/08/18 09:08:01;;;;;;;3.45;1.90;;;20.70;65.60;;;;;;5111982;28;20173;-62
2021/08/18 09:10:27;;;;;;;1.50;1.40;;;20.60;65.70;;;;;;5112524;28;20317;-65
2021/08/18 09:13:07;;;;;;;2.58;1.60;;;20.70;65.70;;;;;;5112417;28;20219;-62
2021/08/18 09:15:32;;;;;;;3.15;1.35;;;20.70;65.70;;;;;;5095411;28;20169;-61
2021/08/18 09:17:58;;;;;;;4.13;1.55;;;20.70;65.70;;;;;;5112430;28;20179;-63
2021/08/18 09:20:25;;;;;;;3.25;1.67;;;20.70;65.80;;;;;;5112402;28;20197;-62
2021/08/18 09:22:52;;;;;;;2.95;1.33;;;20.70;65.80;;;;;;5111654;28;20184;-64
2021/08/18 09:25:26;;;;;;;3.55;1.95;;;20.70;65.90;;;;;;5112842;28;20177;-64
2021/08/18 09:28:00;;;;;;;2.58;1.50;;;20.70;65.90;;;;;;5112830;28;20199;-65
2021/08/18 09:30:29;;;;;;;3.40;1.77;;;20.80;65.90;;;;;;5121605;27;20542;-65
2021/08/18 09:32:59;;;;;;;4.43;1.52;;;20.90;65.90;;;;;;5121244;27;20166;-64
2021/08/18 09:35:26;;;;;;;2.80;1.45;;;20.80;65.80;;;;;;5121595;28;20168;-65
2021/08/18 09:37:59;;;;;;;2.88;1.50;;;20.80;65.80;;;;;;5122367;28;20268;-64
2021/08/18 09:40:26;;;;;;;4.45;1.92;;;20.90;65.70;;;;;;5122300;28;20176;-64
2021/08/18 09:42:52;;;;;;;3.78;1.80;;;20.90;65.70;;;;;;5120250;28;20177;-64
2021/08/18 09:45:22;;;;;;;2.03;1.50;;;20.90;65.80;;;;;;5122749;28;20176;-64
2021/08/18 09:48:12;;;;;;;2.00;1.38;;;20.90;65.80;;;;;;5126262;27;20169;-64
2021/08/18 09:50:50;;;;;;;3.13;1.30;;;20.90;65.70;;;;;;5124600;27;20169;-63
2021/08/18 09:53:26;;;;;;;2.10;1.30;;;20.90;65.60;;;;;;5125466;27;20169;-65
2021/08/18 09:56:05;;;;;;;3.22;1.50;;;20.90;65.50;;;;;;5125056;27;20201;-64
2021/08/18 09:58:38;;;;;;;1.30;1.20;;;20.90;65.50;;;;;;5123797;27;20173;-65
2021/08/18 10:01:11;;;;;;;3.38;1.30;;;20.90;65.50;;;;;;5125664;27;20221;-65
2021/08/18 10:03:37;;;;;;;4.15;1.55;;;21.00;65.50;;;;;;5125005;27;20283;-63
2021/08/18 10:06:03;;;;;;;3.47;1.60;;;21.00;65.50;;;;;;5124947;27;20221;-64
2021/08/18 10:08:29;;;;;;;3.13;1.42;;;21.00;65.40;;;;;;5126352;27;20587;-64
2021/08/18 10:10:55;;;;;;;2.55;1.20;;;21.00;65.40;;;;;;5124863;27;20688;-65
2021/08/18 10:13:23;;;;;;;2.03;1.60;;;21.10;65.20;;;;;;5124747;27;20301;-65
2021/08/18 10:15:49;;;;;;;2.35;1.30;;;21.10;65.30;;;;;;5126616;27;20177;-63
2021/08/18 10:18:19;;;;;;;2.83;1.40;;;21.10;65.30;;;;;;5123974;27;20169;-63
2021/08/18 10:20:45;;;;;;;1.95;1.35;;;21.10;65.30;;;;;;5106748;27;20173;-63
2021/08/18 10:23:10;;;;;;;3.38;1.45;;;21.10;65.20;;;;;;5090906;27;20280;-64
2021/08/18 10:25:48;;;;;;;1.85;1.30;;;21.20;65.20;;;;;;5123644;27;20530;-62
2021/08/18 10:28:16;;;;;;;2.83;1.42;;;21.20;65.00;;;;;;5124002;27;20644;-65
2021/08/18 10:30:52;;;;;;;1.65;1.30;;;21.20;65.00;;;;;;5124991;27;20203;-66
2021/08/18 10:33:53;;;;;;;2.78;1.38;;;21.20;65.10;;;;;;5123984;27;20177;-65
2021/08/18 10:36:40;;;;;;;2.75;1.50;;;21.20;65.20;;;;;;5124202;27;20208;-65
2021/08/18 10:39:17;;;;;;;2.78;1.40;;;21.20;65.30;;;;;;5125301;27;20631;-64
2021/08/18 10:42:13;;;;;;;2.65;1.90;;;21.10;65.40;;;;;;5127682;27;20195;-69
2021/08/18 10:44:48;;;;;;;2.35;1.63;;;21.10;65.60;;;;;;5135478;27;20169;-68
2021/08/18 10:47:38;;;;;;;2.15;1.55;;;21.00;65.60;;;;;;5135357;27;20176;-62
2021/08/18 10:50:12;;;;;;;3.78;1.73;;;21.00;65.70;;;;;;5135895;27;20271;-64
2021/08/18 10:52:41;;;;;;;3.90;1.63;;;21.00;65.70;;;;;;5135426;27;20617;-64
2021/08/18 10:55:21;;;;;;;2.15;1.60;;;21.00;65.80;;;;;;5134928;27;20183;-65
2021/08/18 10:57:53;;;;;;;2.33;1.77;;;21.00;65.70;;;;;;5134922;27;20295;-65
2021/08/18 11:00:40;;;;;;;1.80;1.60;;;21.00;65.70;;;;;;5134792;27;20626;-66
2021/08/18 11:03:14;;;;;;;3.15;1.63;;;21.00;65.60;;;;;;5135390;27;20602;-64
2021/08/18 11:05:40;;;;;;;2.83;1.40;;;21.00;65.60;;;;;;5135165;27;20163;-65
2021/08/18 11:08:23;;;;;;;1.45;1.30;;;21.00;65.60;;;;;;5134554;27;20168;-64
2021/08/18 11:10:54;;;;;;;2.47;1.90;;;21.00;65.60;;;;;;5135560;27;20184;-63
2021/08/18 11:13:42;;;;;;;1.63;1.52;;;21.00;65.70;;;;;;5135184;27;20188;-65
2021/08/18 11:16:23;;;;;;;1.77;1.65;;;21.00;65.70;;;;;;5134325;27;20245;-65
2021/08/18 11:18:56;;;;;;;3.83;1.40;;;20.90;65.70;;;;;;5134697;27;20184;-63
2021/08/18 11:21:23;;;;;;;5.78;2.08;;;20.90;65.90;;;;;;5124319;27;20168;-63
2021/08/18 11:23:50;;;;;;;4.00;1.98;;;20.90;66.10;;;;;;5114254;28;20220;-65
2021/08/18 11:26:20;;;;;;;2.33;1.80;;;20.80;66.10;;;;;;5113950;28;20255;-66
2021/08/18 11:28:56;;;;;;;2.38;1.75;;;20.80;66.30;;;;;;5114065;28;20165;-64
2021/08/18 11:31:32;;;;;;;2.55;2.28;;;20.80;66.20;;;;;;5114204;28;20187;-66
2021/08/18 11:33:58;;;;;;;2.55;2.20;;;20.80;66.20;;;;;;5114447;28;20177;-67
2021/08/18 11:36:24;;;;;;;2.28;2.03;;;20.80;66.20;;;;;;5094972;28;20288;-67
2021/08/18 11:38:57;;;;;;;2.03;1.92;;;20.90;66.20;;;;;;5114203;28;20177;-64
2021/08/18 11:41:52;;;;;;;2.47;1.70;;;20.90;66.10;;;;;;5114055;28;20185;-65
2021/08/18 11:44:28;;;;;;;2.20;1.95;;;20.90;65.90;;;;;;5095967;28;20181;-65
2021/08/18 11:47:08;;;;;;;2.55;2.15;;;21.00;65.90;;;;;;5113882;28;20583;-64
2021/08/18 11:49:34;;;;;;;3.67;1.90;;;21.00;65.80;;;;;;5113045;28;20252;-65
2021/08/18 11:51:59;;;;;;;2.35;1.90;;;21.10;65.70;;;;;;5114105;28;20603;-65
2021/08/18 11:54:25;;;;;;;2.67;2.15;;;21.10;65.60;;;;;;5095580;28;20173;-66
2021/08/18 11:57:02;;;;;;;2.00;1.80;;;21.10;65.50;;;;;;5113444;28;20221;-65
2021/08/18 11:59:28;;;;;;;2.20;2.00;;;21.10;65.50;;;;;;5113634;28;20177;-66
2021/08/18 12:01:56;;;;;;;2.00;1.80;;;21.10;65.60;;;;;;5113613;28;20172;-66
2021/08/18 12:04:22;;;;;;;2.20;2.00;;;21.00;65.50;;;;;;5112720;28;20257;-66
2021/08/18 12:07:03;;;;;;;2.20;2.03;;;21.00;65.50;;;;;;5113982;28;20227;-65
2021/08/18 12:09:28;;;;;;;2.42;1.60;;;21.00;65.60;;;;;;5097338;28;20188;-65
2021/08/18 12:12:05;;;;;;;2.05;1.95;;;20.90;65.70;;;;;;5112918;28;20161;-65
2021/08/18 12:14:45;;;;;;;2.03;1.88;;;20.90;65.70;;;;;;5113171;28;20177;-66
2021/08/18 12:17:11;;;;;;;3.63;2.25;;;20.90;65.90;;;;;;5113711;28;20358;-65
2021/08/18 12:19:38;;;;;;;3.28;2.30;;;20.90;65.80;;;;;;5112475;28;20173;-65
2021/08/18 12:22:15;;;;;;;1.90;1.70;;;20.90;65.80;;;;;;5113596;28;20184;-64
2021/08/18 12:24:42;;;;;;;2.50;1.90;;;20.90;66.70;;;;;;5112102;28;20236;-65
2021/08/18 12:27:09;;;;;;;2.75;1.92;;;20.90;65.90;;;;;;5118228;27;20181;-63
2021/08/18 12:29:35;;;;;;;2.60;2.22;;;20.90;65.90;;;;;;5121561;27;20166;-62
2021/08/18 12:32:12;;;;;;;2.13;2.00;;;20.90;65.90;;;;;;5129850;27;20187;-66
2021/08/18 12:34:41;;;;;;;2.60;2.30;;;21.00;66.00;;;;;;5133223;27;20266;-65
2021/08/18 12:37:08;;;;;;;2.80;2.28;;;21.00;65.80;;;;;;5133364;27;20318;-65
2021/08/18 12:39:35;;;;;;;2.17;1.95;;;21.10;65.70;;;;;;5132623;27;20511;-64
2021/08/18 12:42:01;;;;;;;1.95;1.85;;;21.20;65.60;;;;;;5133480;27;20225;-65
2021/08/18 12:44:31;;;;;;;1.73;1.63;;;21.20;65.40;;;;;;5133239;27;20575;-65
2021/08/18 12:47:14;;;;;;;3.40;2.10;;;21.30;65.30;;;;;;5132799;27;20176;-65
2021/08/18 12:49:49;;;;;;;2.35;2.15;;;21.30;65.20;;;;;;5133028;27;20188;-64
2021/08/18 12:52:16;;;;;;;2.85;1.98;;;21.40;65.20;;;;;;5133595;27;20164;-64